createdAt,value
2023-01-06T00:01:26.893Z,101173.50
2023-01-06T00:03:55.325Z,101152.59
2023-01-06T00:06:29.844Z,101148.50
2023-01-06T00:09:02.486Z,101132.19
2023-01-06T00:11:29.380Z,101122.16
2023-01-06T00:13:56.487Z,101110.38
2023-01-06T00:16:23.628Z,101093.50
2023-01-06T00:18:54.941Z,101093.34
2023-01-06T00:21:21.929Z,101083.44
2023-01-06T00:23:48.677Z,101071.41
2023-01-06T00:26:15.543Z,101056.97
2023-01-06T00:28:42.547Z,101043.81
2023-01-06T00:31:12.659Z,101039.09
2023-01-06T00:33:39.764Z,101029.94
2023-01-06T00:36:08.193Z,101026.16
2023-01-06T00:38:37.007Z,101015.53
2023-01-06T00:41:29.114Z,101003.16
2023-01-06T00:43:57.505Z,100984.81
2023-01-06T00:46:26.946Z,100953.25
2023-01-06T00:49:04.563Z,100937.03
2023-01-06T00:51:32.653Z,100925.47
2023-01-06T00:54:00.246Z,100913.13
2023-01-06T00:56:27.066Z,100904.25
2023-01-06T00:58:53.717Z,100901.78
2023-01-06T01:01:26.799Z,100902.97
2023-01-06T01:03:53.677Z,100881.97
2023-01-06T01:06:20.401Z,100863.91
2023-01-06T01:08:47.082Z,100845.03
2023-01-06T01:11:36.632Z,100850.50
2023-01-06T01:14:03.334Z,100839.97
2023-01-06T01:16:30.411Z,100836.38
2023-01-06T01:18:57.107Z,100825.13
2023-01-06T01:21:24.090Z,100820.78
2023-01-06T01:23:50.823Z,100809.84
2023-01-06T01:26:17.984Z,100796.97
2023-01-06T01:28:45.188Z,100782.63
2023-01-06T01:31:13.451Z,100785.25
2023-01-06T01:33:40.218Z,100769.88
2023-01-06T01:36:09.063Z,100762.78
2023-01-06T01:38:36.431Z,100759.69
2023-01-06T01:41:03.602Z,100752.28
2023-01-06T01:44:04.299Z,100736.66
2023-01-06T01:46:39.158Z,100730.72
2023-01-06T01:49:16.843Z,100717.72
2023-01-06T01:51:45.734Z,100704.91
2023-01-06T01:54:28.631Z,100692.41
2023-01-06T01:57:09.227Z,100680.41
2023-01-06T01:59:38.804Z,100671.44
2023-01-06T02:02:05.971Z,100651.25
2023-01-06T02:04:37.242Z,100626.91
2023-01-06T02:07:04.793Z,100614.38
2023-01-06T02:09:48.605Z,100597.59
2023-01-06T02:12:15.675Z,100592.09
2023-01-06T02:14:42.700Z,100582.44
2023-01-06T02:17:28.292Z,100573.94
2023-01-06T02:20:23.003Z,100564.94
2023-01-06T02:23:14.858Z,100556.78
2023-01-06T02:26:20.446Z,100545.53
2023-01-06T02:29:23.866Z,100525.09
2023-01-06T02:32:01.220Z,100519.91
2023-01-06T02:35:10.693Z,100503.66
2023-01-06T02:38:14.007Z,100497.47
2023-01-06T02:41:05.323Z,100480.59
2023-01-06T02:44:08.025Z,100474.06
2023-01-06T02:46:43.885Z,100470.91
2023-01-06T02:49:15.793Z,100458.47
2023-01-06T02:52:02.720Z,100455.56
2023-01-06T02:55:04.951Z,100439.88
2023-01-06T02:57:40.823Z,100436.59
2023-01-06T03:00:16.694Z,100427.28
2023-01-06T03:02:49.421Z,100426.50
2023-01-06T03:05:17.559Z,100418.88
2023-01-06T03:07:48.003Z,100402.41
2023-01-06T03:10:18.066Z,100404.44
2023-01-06T03:12:53.281Z,100392.97
2023-01-06T03:15:21.073Z,100381.59
2023-01-06T03:17:48.035Z,100372.44
2023-01-06T03:20:15.028Z,100359.22
2023-01-06T03:22:42.018Z,100347.09
2023-01-06T03:25:09.775Z,100338.78
2023-01-06T03:27:36.751Z,100334.72
2023-01-06T03:30:09.777Z,100322.97
2023-01-06T03:33:08.335Z,100300.41
2023-01-06T03:35:47.715Z,100285.13
2023-01-06T03:38:31.278Z,100175.22
2023-01-06T03:41:07.340Z,100172.84
2023-01-06T03:44:15.469Z,100167.88
2023-01-06T03:46:51.108Z,100164.19
2023-01-06T03:49:30.115Z,100165.16
2023-01-06T03:52:19.048Z,100150.91
2023-01-06T03:55:03.021Z,100231.41
2023-01-06T03:57:52.213Z,100220.19
2023-01-06T04:00:22.716Z,100212.28
2023-01-06T04:02:49.694Z,100218.53
2023-01-06T04:05:22.712Z,100203.97
2023-01-06T04:07:49.647Z,100198.38
2023-01-06T04:10:19.295Z,100189.16
2023-01-06T04:12:46.241Z,100185.94
2023-01-06T04:15:16.377Z,100180.84
2023-01-06T04:17:44.465Z,100175.38
2023-01-06T04:20:15.115Z,100156.56
2023-01-06T04:22:42.140Z,100146.72
2023-01-06T04:25:09.880Z,100132.47
2023-01-06T04:27:36.613Z,100133.13
2023-01-06T04:30:04.481Z,100132.78
2023-01-06T04:32:33.005Z,100124.47
2023-01-06T04:34:59.936Z,100117.56
2023-01-06T04:37:26.621Z,100110.97
2023-01-06T04:39:53.355Z,100098.22
2023-01-06T04:42:20.172Z,100097.69
2023-01-06T04:44:47.008Z,100095.53
2023-01-06T04:47:13.741Z,100090.69
2023-01-06T04:49:40.540Z,100087.19
2023-01-06T04:52:08.948Z,100080.19
2023-01-06T04:54:36.770Z,100065.72
2023-01-06T04:57:03.625Z,100062.66
2023-01-06T04:59:30.330Z,100050.88
2023-01-06T05:01:57.146Z,100063.09
2023-01-06T05:04:24.062Z,100042.97
2023-01-06T05:06:51.471Z,100035.41
2023-01-06T05:09:18.430Z,100035.09
2023-01-06T05:11:45.332Z,100031.41
2023-01-06T05:14:12.691Z,100024.47
2023-01-06T05:16:40.004Z,100023.50
2023-01-06T05:19:07.078Z,100018.72
2023-01-06T05:21:34.099Z,100020.66
2023-01-06T05:24:01.092Z,100012.19
2023-01-06T05:26:28.765Z,100008.53
2023-01-06T05:28:56.122Z,100001.31
2023-01-06T05:31:23.616Z,99997.50
2023-01-06T05:33:50.796Z,99992.31
2023-01-06T05:36:18.679Z,99999.50
2023-01-06T05:38:50.826Z,99992.09
2023-01-06T05:41:17.702Z,99997.03
2023-01-06T05:43:44.723Z,99997.31
2023-01-06T05:46:12.402Z,99989.44
2023-01-06T05:48:39.799Z,99988.59
2023-01-06T05:51:09.124Z,99982.72
2023-01-06T05:53:38.916Z,99979.59
2023-01-06T05:56:07.463Z,99980.06
2023-01-06T05:58:35.479Z,99972.28
2023-01-06T06:01:04.158Z,99966.22
2023-01-06T06:03:32.379Z,99960.56
2023-01-06T06:06:04.516Z,99963.03
2023-01-06T06:08:31.932Z,99945.34
2023-01-06T06:11:06.079Z,99951.63
2023-01-06T06:13:33.172Z,99956.06
2023-01-06T06:16:11.639Z,99952.63
2023-01-06T06:18:42.904Z,99952.38
2023-01-06T06:21:15.018Z,99955.72
2023-01-06T06:23:42.756Z,99962.63
2023-01-06T06:26:10.878Z,99953.03
2023-01-06T06:28:39.126Z,99954.75
2023-01-06T06:31:18.249Z,99947.38
2023-01-06T06:33:45.301Z,99946.06
2023-01-06T06:36:15.906Z,99951.56
2023-01-06T06:38:47.038Z,99937.19
2023-01-06T06:41:14.314Z,99942.13
2023-01-06T06:43:41.605Z,99936.47
2023-01-06T06:46:09.466Z,99940.16
2023-01-06T06:48:36.992Z,99943.34
2023-01-06T06:51:09.041Z,99940.16
2023-01-06T06:53:36.301Z,99929.81
2023-01-06T06:56:04.162Z,99910.22
2023-01-06T06:58:31.024Z,99830.44
2023-01-06T07:00:57.974Z,99828.72
2023-01-06T07:03:25.363Z,99814.66
2023-01-06T07:05:53.003Z,99792.50
2023-01-06T07:08:20.675Z,99805.03
2023-01-06T07:10:47.546Z,99784.25
2023-01-06T07:13:14.317Z,99791.03
2023-01-06T07:15:41.134Z,99788.44
2023-01-06T07:18:07.923Z,99789.75
2023-01-06T07:20:37.119Z,99785.19
2023-01-06T07:23:04.550Z,99771.03
2023-01-06T07:25:32.045Z,99775.31
2023-01-06T07:28:01.008Z,99764.00
2023-01-06T07:30:28.344Z,99758.00
2023-01-06T07:32:55.071Z,99751.06
2023-01-06T07:35:21.871Z,99746.81
2023-01-06T07:37:49.211Z,99741.00
2023-01-06T07:40:17.754Z,99739.34
2023-01-06T07:42:47.856Z,99734.38
2023-01-06T07:45:14.728Z,99731.41
2023-01-06T07:47:41.512Z,99727.41
2023-01-06T07:50:08.404Z,99712.25
2023-01-06T07:52:35.175Z,99718.13
2023-01-06T07:55:02.576Z,99710.28
2023-01-06T07:57:32.625Z,99703.03
2023-01-06T07:59:59.354Z,99699.19
2023-01-06T08:02:26.115Z,99706.38
2023-01-06T08:04:52.970Z,99709.53
2023-01-06T08:07:19.674Z,99708.56
2023-01-06T08:09:46.380Z,99707.56
2023-01-06T08:12:13.206Z,99703.50
2023-01-06T08:14:40.031Z,99699.31
2023-01-06T08:17:07.879Z,99706.47
2023-01-06T08:19:34.639Z,99709.28
2023-01-06T08:22:01.758Z,99699.44
2023-01-06T08:24:31.871Z,99685.56
2023-01-06T08:26:59.402Z,99695.16
2023-01-06T08:29:26.248Z,99697.94
2023-01-06T08:31:59.354Z,99696.88
2023-01-06T08:34:36.179Z,99668.38
2023-01-06T08:37:02.928Z,99683.25
2023-01-06T08:39:29.665Z,99691.59
2023-01-06T08:41:56.403Z,99682.66
2023-01-06T08:44:23.102Z,99672.94
2023-01-06T08:46:49.806Z,99679.09
2023-01-06T08:49:16.612Z,99708.66
2023-01-06T08:51:43.351Z,99699.00
2023-01-06T08:54:10.241Z,99715.72
2023-01-06T08:56:37.073Z,99694.22
2023-01-06T08:59:05.281Z,99681.41
2023-01-06T09:01:34.964Z,99677.47
2023-01-06T09:04:05.296Z,99686.06
2023-01-06T09:06:32.162Z,99681.53
2023-01-06T09:08:59.544Z,99670.44
2023-01-06T09:11:26.737Z,99677.56
2023-01-06T09:13:54.045Z,99673.34
2023-01-06T09:16:21.725Z,99667.13
2023-01-06T09:18:50.273Z,99664.13
2023-01-06T09:21:22.290Z,99653.53
2023-01-06T09:23:50.087Z,99641.41
2023-01-06T09:26:17.898Z,99646.66
2023-01-06T09:28:45.035Z,99645.06
2023-01-06T09:31:15.003Z,99646.16
2023-01-06T09:33:41.917Z,99636.56
2023-01-06T09:36:08.785Z,99625.72
2023-01-06T09:38:35.672Z,99634.28
2023-01-06T09:41:40.082Z,99633.09
2023-01-06T09:44:17.959Z,99629.69
2023-01-06T09:46:52.807Z,99646.84
2023-01-06T09:49:34.775Z,99649.41
2023-01-06T09:52:07.136Z,99655.69
2023-01-06T09:54:40.400Z,99677.97
2023-01-06T09:57:15.663Z,99658.25
2023-01-06T10:00:02.040Z,99671.97
2023-01-06T10:02:46.992Z,99661.38
2023-01-06T10:05:32.301Z,99677.78
2023-01-06T10:08:10.712Z,99667.81
2023-01-06T10:11:00.460Z,99682.81
2023-01-06T10:13:47.853Z,99679.94
2023-01-06T10:16:20.682Z,99691.78
2023-01-06T10:19:12.479Z,99686.16
2023-01-06T10:21:55.461Z,99710.25
2023-01-06T10:24:31.191Z,99711.16
2023-01-06T10:27:02.086Z,99729.44
2023-01-06T10:29:33.967Z,99744.44
2023-01-06T10:32:03.607Z,99755.59
2023-01-06T10:34:34.258Z,99757.34
2023-01-06T10:37:10.070Z,99768.44
2023-01-06T10:39:39.672Z,99772.13
2023-01-06T10:42:56.236Z,99778.44
2023-01-06T10:45:44.147Z,99780.78
2023-01-06T10:48:20.224Z,99809.38
2023-01-06T10:50:47.667Z,99822.28
2023-01-06T10:53:15.672Z,99817.84
2023-01-06T10:55:53.875Z,99827.72
2023-01-06T10:58:38.909Z,99844.22
2023-01-06T11:01:11.816Z,99833.97
2023-01-06T11:03:42.826Z,99855.28
2023-01-06T11:06:28.340Z,99872.59
2023-01-06T11:08:55.978Z,99881.38
2023-01-06T11:11:28.072Z,99893.47
2023-01-06T11:13:59.397Z,99905.78
2023-01-06T11:16:35.721Z,99915.75
2023-01-06T11:19:08.421Z,99937.81
2023-01-06T11:21:48.856Z,99932.66
2023-01-06T11:24:21.870Z,99958.13
2023-01-06T11:27:00.849Z,100014.50
2023-01-06T11:29:35.358Z,100026.69
2023-01-06T11:32:16.247Z,100035.44
2023-01-06T11:34:54.463Z,100040.13
2023-01-06T11:37:41.905Z,100046.38
2023-01-06T11:40:25.921Z,100050.06
2023-01-06T11:42:56.296Z,100009.00
2023-01-06T11:45:47.126Z,100020.19
2023-01-06T11:48:18.042Z,100031.75
2023-01-06T11:51:02.880Z,100044.66
2023-01-06T11:53:30.895Z,100052.44
2023-01-06T11:56:03.675Z,100062.63
2023-01-06T11:59:09.770Z,100095.53
2023-01-06T12:01:45.061Z,100215.38
2023-01-06T12:04:17.633Z,100224.09
2023-01-06T12:06:45.235Z,100245.50
2023-01-06T12:09:22.532Z,100284.72
2023-01-06T12:11:54.420Z,100313.13
2023-01-06T12:14:30.582Z,100332.31
2023-01-06T12:16:57.359Z,100355.91
2023-01-06T12:19:35.159Z,100374.88
2023-01-06T12:22:03.305Z,100398.50
2023-01-06T12:24:33.367Z,100417.06
2023-01-06T12:27:04.295Z,100429.50
2023-01-06T12:29:32.790Z,100443.03
2023-01-06T12:32:19.702Z,100470.03
2023-01-06T12:34:50.293Z,100488.88
2023-01-06T12:37:33.016Z,100497.44
2023-01-06T12:40:30.431Z,100515.97
2023-01-06T12:43:12.428Z,100534.94
2023-01-06T12:46:00.702Z,100558.41
2023-01-06T12:48:48.288Z,100566.47
2023-01-06T12:51:23.958Z,100578.69
2023-01-06T12:53:59.472Z,100587.03
2023-01-06T12:56:35.309Z,100617.78
2023-01-06T12:59:14.006Z,100614.22
2023-01-06T13:02:02.483Z,100640.63
2023-01-06T13:04:57.222Z,100654.66
2023-01-06T13:07:38.395Z,100662.09
2023-01-06T13:10:23.287Z,100661.81
2023-01-06T13:13:09.283Z,100671.09
2023-01-06T13:15:41.015Z,100675.44
2023-01-06T13:18:12.745Z,100683.56
2023-01-06T13:20:47.434Z,100688.88
2023-01-06T13:23:31.306Z,100688.75
2023-01-06T13:26:30.915Z,100703.06
2023-01-06T13:29:16.413Z,100711.97
2023-01-06T13:31:56.533Z,100699.38
2023-01-06T13:34:49.867Z,100731.47
2023-01-06T13:37:57.596Z,100748.88
2023-01-06T13:40:29.735Z,100760.97
2023-01-06T13:42:59.248Z,100775.91
2023-01-06T13:45:52.338Z,100787.06
2023-01-06T13:48:23.497Z,100796.81
2023-01-06T13:50:50.582Z,100818.06
2023-01-06T13:53:23.497Z,100810.25
2023-01-06T13:56:13.525Z,100824.00
2023-01-06T13:58:42.653Z,100815.31
2023-01-06T14:01:29.271Z,100820.81
2023-01-06T14:04:37.122Z,100827.00
2023-01-06T14:07:05.081Z,100829.91
2023-01-06T14:09:36.562Z,100843.81
2023-01-06T14:12:31.017Z,100849.13
2023-01-06T14:15:01.595Z,100850.97
2023-01-06T14:17:38.922Z,100854.66
2023-01-06T14:20:07.093Z,100863.94
2023-01-06T14:22:34.127Z,100862.97
2023-01-06T14:25:08.681Z,100867.81
2023-01-06T14:27:47.355Z,100882.50
2023-01-06T14:30:34.758Z,100879.03
2023-01-06T14:33:07.543Z,100885.78
2023-01-06T14:35:44.808Z,100884.06
2023-01-06T14:38:29.725Z,100892.94
2023-01-06T14:41:19.605Z,100885.88
2023-01-06T14:44:15.494Z,100899.41
2023-01-06T14:46:49.274Z,100913.19
2023-01-06T14:49:24.767Z,100911.56
2023-01-06T14:51:55.687Z,100925.88
2023-01-06T14:54:36.387Z,100912.22
2023-01-06T14:57:06.182Z,100917.25
2023-01-06T14:59:33.056Z,100921.59
2023-01-06T15:02:16.485Z,100911.81
2023-01-06T15:04:44.184Z,100918.31
2023-01-06T15:07:20.241Z,100913.75
2023-01-06T15:09:49.147Z,100920.63
2023-01-06T15:12:33.097Z,100919.88
2023-01-06T15:15:23.743Z,100928.06
2023-01-06T15:17:53.006Z,100918.78
2023-01-06T15:20:22.621Z,100916.28
2023-01-06T15:22:51.085Z,100914.84
2023-01-06T15:25:25.956Z,100919.28
2023-01-06T15:27:55.356Z,100920.19
2023-01-06T15:30:24.755Z,100926.56
2023-01-06T15:32:52.954Z,100931.97
2023-01-06T15:35:24.387Z,100932.94
2023-01-06T15:37:59.205Z,100925.03
2023-01-06T15:40:27.670Z,100920.66
2023-01-06T15:42:54.540Z,100921.53
2023-01-06T15:45:34.535Z,100916.31
2023-01-06T15:48:08.837Z,100916.91
2023-01-06T15:50:36.277Z,100914.41
2023-01-06T15:53:05.650Z,100916.22
2023-01-06T15:55:38.087Z,100924.53
2023-01-06T15:58:27.575Z,100926.38
2023-01-06T16:00:59.214Z,100910.81
2023-01-06T16:03:28.036Z,100914.22
2023-01-06T16:06:11.716Z,100905.13
2023-01-06T16:08:40.527Z,100917.97
2023-01-06T16:11:16.452Z,100907.44
2023-01-06T16:13:58.299Z,100916.22
2023-01-06T16:16:31.834Z,100909.19
2023-01-06T16:18:58.815Z,100912.06
2023-01-06T16:21:30.018Z,100903.19
2023-01-06T16:23:59.263Z,100898.34
2023-01-06T16:26:29.443Z,100895.34
2023-01-06T16:28:58.173Z,100903.56
2023-01-06T16:31:36.287Z,100901.06
2023-01-06T16:34:26.747Z,100906.47
2023-01-06T16:36:58.575Z,100908.41
2023-01-06T16:39:26.157Z,100916.84
2023-01-06T16:41:58.873Z,100924.31
2023-01-06T16:44:30.127Z,100926.50
2023-01-06T16:46:58.016Z,100923.91
2023-01-06T16:49:24.968Z,100937.91
2023-01-06T16:51:52.637Z,100940.44
2023-01-06T16:54:19.372Z,100946.03
2023-01-06T16:56:47.442Z,100957.56
2023-01-06T16:59:16.894Z,100958.78
2023-01-06T17:01:44.949Z,100957.03
2023-01-06T17:04:13.007Z,100956.22
2023-01-06T17:06:40.877Z,100953.69
2023-01-06T17:09:20.757Z,100953.50
2023-01-06T17:11:48.234Z,100950.72
2023-01-06T17:14:22.219Z,100955.63
2023-01-06T17:16:50.742Z,100951.00
2023-01-06T17:19:28.509Z,100967.31
2023-01-06T17:22:17.312Z,100972.03
2023-01-06T17:24:43.933Z,100974.44
2023-01-06T17:27:21.760Z,100975.59
2023-01-06T17:29:49.764Z,100987.94
2023-01-06T17:32:37.191Z,100985.19
2023-01-06T17:35:16.925Z,100990.88
2023-01-06T17:37:43.666Z,100996.72
2023-01-06T17:40:17.105Z,101009.56
2023-01-06T17:42:44.129Z,101015.34
2023-01-06T17:45:29.964Z,101009.03
2023-01-06T17:47:57.172Z,101022.47
2023-01-06T17:50:34.982Z,101024.75
2023-01-06T17:53:41.291Z,101026.16
2023-01-06T17:56:10.495Z,101025.06
2023-01-06T17:58:39.822Z,101042.38
2023-01-06T18:01:16.826Z,101042.72
2023-01-06T18:03:44.203Z,101049.72
2023-01-06T18:06:25.987Z,101054.06
2023-01-06T18:09:17.652Z,101054.69
2023-01-06T18:11:47.134Z,101062.97
2023-01-06T18:14:27.940Z,101068.22
2023-01-06T18:16:57.408Z,101080.94
2023-01-06T18:19:28.280Z,101080.06
2023-01-06T18:21:55.563Z,101097.34
2023-01-06T18:24:32.219Z,101098.13
2023-01-06T18:27:01.140Z,101092.28
2023-01-06T18:29:39.092Z,101107.66
2023-01-06T18:32:21.106Z,101102.16
2023-01-06T18:34:53.547Z,101115.97
2023-01-06T18:37:26.154Z,101119.69
2023-01-06T18:39:57.286Z,101131.84
2023-01-06T18:42:27.873Z,101131.22
2023-01-06T18:45:20.930Z,101124.06
2023-01-06T18:47:55.220Z,101131.22
2023-01-06T18:50:32.920Z,101151.03
2023-01-06T18:53:15.025Z,101146.03
2023-01-06T18:55:47.138Z,101145.88
2023-01-06T18:58:47.560Z,101150.25
2023-01-06T19:01:26.311Z,101155.28
2023-01-06T19:04:24.817Z,101150.16
2023-01-06T19:07:15.638Z,101144.22
2023-01-06T19:09:44.582Z,101149.28
2023-01-06T19:12:14.181Z,101153.66
2023-01-06T19:14:43.299Z,101157.41
2023-01-06T19:17:20.468Z,101153.56
2023-01-06T19:19:47.992Z,101155.66
2023-01-06T19:22:14.840Z,101158.91
2023-01-06T19:24:45.576Z,101161.97
2023-01-06T19:27:34.786Z,101166.41
2023-01-06T19:30:13.608Z,101162.28
2023-01-06T19:32:40.670Z,101163.41
2023-01-06T19:35:29.371Z,101162.19
2023-01-06T19:38:09.589Z,101165.00
2023-01-06T19:40:41.984Z,101170.03
2023-01-06T19:43:18.180Z,101173.19
2023-01-06T19:45:45.262Z,101183.22
2023-01-06T19:48:37.440Z,101175.28
2023-01-06T19:51:27.600Z,101173.88
2023-01-06T19:53:58.626Z,101179.34
2023-01-06T19:56:33.845Z,101181.09
2023-01-06T19:59:29.102Z,101176.44
2023-01-06T20:02:07.948Z,101178.38
2023-01-06T20:04:35.617Z,101169.75
2023-01-06T20:07:02.880Z,101165.63
2023-01-06T20:09:33.250Z,101171.28
2023-01-06T20:12:00.368Z,101171.63
2023-01-06T20:14:27.163Z,101177.03
2023-01-06T20:16:53.947Z,101177.03
2023-01-06T20:19:21.681Z,101170.88
2023-01-06T20:21:48.654Z,101166.75
2023-01-06T20:24:15.528Z,101165.59
2023-01-06T20:26:42.306Z,101151.22
2023-01-06T20:29:09.577Z,101162.03
2023-01-06T20:31:36.456Z,101160.47
2023-01-06T20:34:03.517Z,101157.81
2023-01-06T20:36:30.505Z,101147.13
2023-01-06T20:38:57.206Z,101162.19
2023-01-06T20:41:23.949Z,101164.50
2023-01-06T20:43:50.612Z,101149.59
2023-01-06T20:46:17.371Z,101152.78
2023-01-06T20:48:44.881Z,101143.31
2023-01-06T20:51:11.663Z,101135.06
2023-01-06T20:53:38.488Z,101129.13
2023-01-06T20:56:05.654Z,101131.25
2023-01-06T20:58:32.426Z,101123.56
2023-01-06T21:00:59.288Z,101121.56
2023-01-06T21:03:25.963Z,101117.44
2023-01-06T21:05:52.864Z,101116.28
2023-01-06T21:08:19.643Z,101123.72
2023-01-06T21:10:46.383Z,101116.59
2023-01-06T21:13:13.113Z,101110.06
2023-01-06T21:15:39.771Z,101113.16
2023-01-06T21:18:06.437Z,101108.72
2023-01-06T21:20:33.100Z,101106.50
2023-01-06T21:22:59.958Z,101092.94
2023-01-06T21:25:26.721Z,101083.47
2023-01-06T21:27:53.464Z,101075.63
2023-01-06T21:30:20.295Z,101067.47
2023-01-06T21:32:47.094Z,101065.38
2023-01-06T21:35:13.969Z,101055.78
2023-01-06T21:37:40.711Z,101055.78
2023-01-06T21:40:11.635Z,101052.91
2023-01-06T21:42:57.326Z,101047.53
2023-01-06T21:45:24.256Z,101044.19
2023-01-06T21:47:51.275Z,101038.47
2023-01-06T21:50:18.151Z,101028.88
2023-01-06T21:52:46.689Z,101014.69
2023-01-06T21:55:13.618Z,101008.13
2023-01-06T21:57:43.190Z,101013.75
2023-01-06T22:00:10.828Z,101009.28
2023-01-06T22:02:37.759Z,101001.31
2023-01-06T22:05:05.233Z,101007.72
2023-01-06T22:07:36.772Z,100997.34
2023-01-06T22:10:06.029Z,100995.59
2023-01-06T22:12:33.833Z,100998.41
2023-01-06T22:15:01.198Z,100987.94
2023-01-06T22:17:28.013Z,100980.75
2023-01-06T22:19:55.674Z,100977.16
2023-01-06T22:22:23.605Z,100958.06
2023-01-06T22:24:54.036Z,100969.88
2023-01-06T22:27:20.765Z,100968.59
2023-01-06T22:29:47.485Z,100962.66
2023-01-06T22:32:14.196Z,100954.50
2023-01-06T22:34:40.905Z,100953.63
2023-01-06T22:37:07.593Z,100951.72
2023-01-06T22:39:34.299Z,100944.59
2023-01-06T22:42:01.069Z,100944.66
2023-01-06T22:44:27.839Z,100942.13
2023-01-06T22:46:54.644Z,100941.75
2023-01-06T22:49:21.469Z,100937.63
2023-01-06T22:51:48.201Z,100943.50
2023-01-06T22:54:14.870Z,100944.19
2023-01-06T22:56:42.031Z,100942.69
2023-01-06T22:59:09.391Z,100935.34
2023-01-06T23:01:36.109Z,100931.66
2023-01-06T23:04:03.402Z,100928.31
2023-01-06T23:06:30.229Z,100925.78
2023-01-06T23:09:00.735Z,100923.16
2023-01-06T23:11:28.866Z,100921.88
2023-01-06T23:13:57.813Z,100922.03
2023-01-06T23:16:26.649Z,100922.41
2023-01-06T23:18:54.109Z,100915.34
2023-01-06T23:21:26.634Z,100910.91
2023-01-06T23:23:54.048Z,100905.84
2023-01-06T23:26:28.741Z,100907.66
2023-01-06T23:28:56.947Z,100894.47
2023-01-06T23:31:31.943Z,100886.75
2023-01-06T23:34:02.383Z,100891.91
2023-01-06T23:36:32.593Z,100873.81
2023-01-06T23:39:03.211Z,100873.13
2023-01-06T23:41:32.500Z,100867.66
2023-01-06T23:43:59.848Z,100862.88
2023-01-06T23:46:37.891Z,100855.00
2023-01-06T23:49:05.331Z,100858.72
2023-01-06T23:51:33.248Z,100850.34
2023-01-06T23:54:01.689Z,100842.34
2023-01-06T23:56:31.004Z,100841.97
2023-01-06T23:58:59.902Z,100840.13
